sensor_id;sensor_type;location;lat;lon;timestamp;P1;durP1;ratioP1;P2;durP2;ratioP2
26512;SDS011;14186;53.822;10.152;2022-09-30T00:02:23;10.57;;;7.40;;
26512;SDS011;14186;53.822;10.152;2022-09-30T00:07:24;13.80;;;8.20;;
26512;SDS011;14186;53.822;10.152;2022-09-30T00:12:24;13.70;;;8.48;;
26512;SDS011;14186;53.822;10.152;2022-09-30T00:17:27;12.95;;;8.63;;
26512;SDS011;14186;53.822;10.152;2022-09-30T00:22:28;13.23;;;8.75;;
26512;SDS011;14186;53.822;10.152;2022-09-30T00:27:29;16.92;;;10.27;;
26512;SDS011;14186;53.822;10.152;2022-09-30T00:32:30;15.50;;;10.00;;
26512;SDS011;14186;53.822;10.152;2022-09-30T00:37:31;17.10;;;9.40;;
26512;SDS011;14186;53.822;10.152;2022-09-30T00:42:32;15.02;;;9.65;;
26512;SDS011;14186;53.822;10.152;2022-09-30T00:47:43;16.13;;;9.35;;
26512;SDS011;14186;53.822;10.152;2022-09-30T00:52:47;15.93;;;10.18;;
26512;SDS011;14186;53.822;10.152;2022-09-30T00:57:49;13.82;;;8.95;;
26512;SDS011;14186;53.822;10.152;2022-09-30T01:02:49;27.15;;;11.77;;
26512;SDS011;14186;53.822;10.152;2022-09-30T01:07:51;14.48;;;9.65;;
26512;SDS011;14186;53.822;10.152;2022-09-30T01:12:52;16.15;;;11.10;;
26512;SDS011;14186;53.822;10.152;2022-09-30T01:17:53;17.53;;;10.53;;
26512;SDS011;14186;53.822;10.152;2022-09-30T01:23:00;18.70;;;10.32;;
26512;SDS011;14186;53.822;10.152;2022-09-30T01:28:23;18.55;;;11.40;;
26512;SDS011;14186;53.822;10.152;2022-09-30T01:33:34;19.98;;;11.55;;
26512;SDS011;14186;53.822;10.152;2022-09-30T01:38:40;16.95;;;11.35;;
26512;SDS011;14186;53.822;10.152;2022-09-30T01:43:44;17.08;;;10.70;;
26512;SDS011;14186;53.822;10.152;2022-09-30T01:48:49;16.38;;;10.93;;
26512;SDS011;14186;53.822;10.152;2022-09-30T01:53:53;18.08;;;11.45;;
26512;SDS011;14186;53.822;10.152;2022-09-30T01:58:55;15.45;;;10.93;;
26512;SDS011;14186;53.822;10.152;2022-09-30T02:03:59;16.45;;;11.05;;
26512;SDS011;14186;53.822;10.152;2022-09-30T02:09:01;16.63;;;11.70;;
26512;SDS011;14186;53.822;10.152;2022-09-30T02:14:05;17.85;;;11.48;;
26512;SDS011;14186;53.822;10.152;2022-09-30T02:19:12;18.17;;;10.95;;
26512;SDS011;14186;53.822;10.152;2022-09-30T02:24:15;15.48;;;11.35;;
26512;SDS011;14186;53.822;10.152;2022-09-30T02:29:17;18.92;;;12.88;;
26512;SDS011;14186;53.822;10.152;2022-09-30T02:34:23;19.10;;;12.98;;
26512;SDS011;14186;53.822;10.152;2022-09-30T02:39:26;20.02;;;13.13;;
26512;SDS011;14186;53.822;10.152;2022-09-30T02:44:27;24.33;;;14.02;;
26512;SDS011;14186;53.822;10.152;2022-09-30T02:49:30;21.88;;;13.63;;
26512;SDS011;14186;53.822;10.152;2022-09-30T02:54:34;18.33;;;12.90;;
26512;SDS011;14186;53.822;10.152;2022-09-30T02:59:36;20.53;;;13.80;;
26512;SDS011;14186;53.822;10.152;2022-09-30T03:04:37;20.23;;;12.65;;
26512;SDS011;14186;53.822;10.152;2022-09-30T03:09:38;23.20;;;13.27;;
26512;SDS011;14186;53.822;10.152;2022-09-30T03:14:42;20.02;;;13.63;;
26512;SDS011;14186;53.822;10.152;2022-09-30T03:19:52;21.48;;;12.68;;
26512;SDS011;14186;53.822;10.152;2022-09-30T03:25:03;18.77;;;12.38;;
26512;SDS011;14186;53.822;10.152;2022-09-30T03:30:06;20.83;;;13.68;;
26512;SDS011;14186;53.822;10.152;2022-09-30T03:35:12;20.88;;;12.90;;
26512;SDS011;14186;53.822;10.152;2022-09-30T03:45:22;26.75;;;14.63;;
26512;SDS011;14186;53.822;10.152;2022-09-30T03:50:26;24.65;;;14.45;;
26512;SDS011;14186;53.822;10.152;2022-09-30T03:55:28;22.52;;;14.00;;
26512;SDS011;14186;53.822;10.152;2022-09-30T04:00:28;20.05;;;12.82;;
26512;SDS011;14186;53.822;10.152;2022-09-30T04:05:30;21.15;;;12.88;;
26512;SDS011;14186;53.822;10.152;2022-09-30T04:10:30;20.92;;;13.50;;
26512;SDS011;14186;53.822;10.152;2022-09-30T04:15:30;19.98;;;12.70;;
26512;SDS011;14186;53.822;10.152;2022-09-30T04:20:32;19.38;;;12.23;;
26512;SDS011;14186;53.822;10.152;2022-09-30T04:25:32;19.95;;;13.15;;
26512;SDS011;14186;53.822;10.152;2022-09-30T04:30:32;22.85;;;13.25;;
26512;SDS011;14186;53.822;10.152;2022-09-30T04:35:36;23.77;;;13.70;;
26512;SDS011;14186;53.822;10.152;2022-09-30T04:40:37;23.05;;;14.50;;
26512;SDS011;14186;53.822;10.152;2022-09-30T04:45:38;17.67;;;11.88;;
26512;SDS011;14186;53.822;10.152;2022-09-30T04:50:42;21.33;;;12.07;;
26512;SDS011;14186;53.822;10.152;2022-09-30T04:55:43;19.33;;;11.60;;
26512;SDS011;14186;53.822;10.152;2022-09-30T05:00:44;18.40;;;11.57;;
26512;SDS011;14186;53.822;10.152;2022-09-30T05:05:45;18.25;;;12.00;;
26512;SDS011;14186;53.822;10.152;2022-09-30T05:10:51;18.85;;;11.02;;
26512;SDS011;14186;53.822;10.152;2022-09-30T05:15:51;17.98;;;11.30;;
26512;SDS011;14186;53.822;10.152;2022-09-30T05:20:53;19.92;;;12.43;;
26512;SDS011;14186;53.822;10.152;2022-09-30T05:25:54;22.70;;;13.88;;
26512;SDS011;14186;53.822;10.152;2022-09-30T05:30:54;19.95;;;12.05;;
26512;SDS011;14186;53.822;10.152;2022-09-30T05:35:59;20.65;;;12.25;;
26512;SDS011;14186;53.822;10.152;2022-09-30T05:41:04;18.33;;;12.55;;
26512;SDS011;14186;53.822;10.152;2022-09-30T05:46:05;19.27;;;12.68;;
26512;SDS011;14186;53.822;10.152;2022-09-30T05:51:07;19.60;;;12.77;;
26512;SDS011;14186;53.822;10.152;2022-09-30T05:56:07;18.48;;;12.80;;
26512;SDS011;14186;53.822;10.152;2022-09-30T06:01:09;22.88;;;13.00;;
26512;SDS011;14186;53.822;10.152;2022-09-30T06:06:11;20.27;;;12.77;;
26512;SDS011;14186;53.822;10.152;2022-09-30T06:11:13;20.85;;;13.52;;
26512;SDS011;14186;53.822;10.152;2022-09-30T06:16:13;18.98;;;12.82;;
26512;SDS011;14186;53.822;10.152;2022-09-30T06:21:15;18.23;;;12.73;;
26512;SDS011;14186;53.822;10.152;2022-09-30T06:26:15;17.02;;;11.68;;
26512;SDS011;14186;53.822;10.152;2022-09-30T06:31:15;14.55;;;10.50;;
26512;SDS011;14186;53.822;10.152;2022-09-30T06:36:18;13.02;;;9.50;;
26512;SDS011;14186;53.822;10.152;2022-09-30T06:41:18;14.13;;;9.88;;
26512;SDS011;14186;53.822;10.152;2022-09-30T06:46:19;17.92;;;9.75;;
26512;SDS011;14186;53.822;10.152;2022-09-30T06:51:22;13.80;;;9.30;;
26512;SDS011;14186;53.822;10.152;2022-09-30T06:56:23;17.63;;;10.90;;
26512;SDS011;14186;53.822;10.152;2022-09-30T07:01:23;16.30;;;10.55;;
26512;SDS011;14186;53.822;10.152;2022-09-30T07:06:25;16.73;;;11.52;;
26512;SDS011;14186;53.822;10.152;2022-09-30T07:11:25;15.68;;;11.32;;
26512;SDS011;14186;53.822;10.152;2022-09-30T07:16:25;18.37;;;12.17;;
26512;SDS011;14186;53.822;10.152;2022-09-30T07:21:27;18.73;;;11.88;;
26512;SDS011;14186;53.822;10.152;2022-09-30T07:26:27;15.77;;;12.50;;
26512;SDS011;14186;53.822;10.152;2022-09-30T07:31:27;16.13;;;11.05;;
26512;SDS011;14186;53.822;10.152;2022-09-30T07:36:29;16.50;;;11.50;;
26512;SDS011;14186;53.822;10.152;2022-09-30T07:41:29;16.00;;;11.98;;
26512;SDS011;14186;53.822;10.152;2022-09-30T07:46:30;15.00;;;10.82;;
26512;SDS011;14186;53.822;10.152;2022-09-30T07:51:33;16.95;;;10.93;;
26512;SDS011;14186;53.822;10.152;2022-09-30T07:56:34;16.20;;;10.88;;
26512;SDS011;14186;53.822;10.152;2022-09-30T08:01:34;14.77;;;9.73;;
26512;SDS011;14186;53.822;10.152;2022-09-30T08:06:36;13.60;;;9.05;;
26512;SDS011;14186;53.822;10.152;2022-09-30T08:11:37;12.52;;;8.75;;
26512;SDS011;14186;53.822;10.152;2022-09-30T08:16:37;11.70;;;8.68;;
26512;SDS011;14186;53.822;10.152;2022-09-30T08:21:41;10.35;;;7.72;;
26512;SDS011;14186;53.822;10.152;2022-09-30T08:26:41;9.77;;;7.00;;
26512;SDS011;14186;53.822;10.152;2022-09-30T08:31:41;10.85;;;7.18;;
26512;SDS011;14186;53.822;10.152;2022-09-30T08:36:43;9.70;;;6.05;;
26512;SDS011;14186;53.822;10.152;2022-09-30T08:47:00;8.43;;;5.53;;
26512;SDS011;14186;53.822;10.152;2022-09-30T08:52:06;7.60;;;4.60;;
26512;SDS011;14186;53.822;10.152;2022-09-30T08:57:08;6.00;;;4.13;;
26512;SDS011;14186;53.822;10.152;2022-09-30T09:02:13;6.32;;;3.40;;
26512;SDS011;14186;53.822;10.152;2022-09-30T09:07:23;6.78;;;3.65;;
26512;SDS011;14186;53.822;10.152;2022-09-30T09:12:26;5.95;;;3.00;;
26512;SDS011;14186;53.822;10.152;2022-09-30T09:17:31;5.25;;;3.70;;
26512;SDS011;14186;53.822;10.152;2022-09-30T09:22:38;5.45;;;3.22;;
26512;SDS011;14186;53.822;10.152;2022-09-30T09:27:40;6.57;;;2.92;;
26512;SDS011;14186;53.822;10.152;2022-09-30T09:32:45;4.20;;;2.47;;
26512;SDS011;14186;53.822;10.152;2022-09-30T09:37:52;4.25;;;1.90;;
26512;SDS011;14186;53.822;10.152;2022-09-30T09:42:57;4.40;;;2.00;;
26512;SDS011;14186;53.822;10.152;2022-09-30T09:48:06;3.88;;;1.63;;
26512;SDS011;14186;53.822;10.152;2022-09-30T09:53:16;8.63;;;3.28;;
26512;SDS011;14186;53.822;10.152;2022-09-30T09:58:19;2.20;;;1.27;;
26512;SDS011;14186;53.822;10.152;2022-09-30T10:03:20;4.57;;;2.00;;
26512;SDS011;14186;53.822;10.152;2022-09-30T10:08:22;2.30;;;1.25;;
26512;SDS011;14186;53.822;10.152;2022-09-30T10:13:23;2.15;;;1.08;;
26512;SDS011;14186;53.822;10.152;2022-09-30T10:18:24;3.13;;;1.40;;
26512;SDS011;14186;53.822;10.152;2022-09-30T10:23:27;3.10;;;1.45;;
26512;SDS011;14186;53.822;10.152;2022-09-30T10:28:29;2.28;;;1.30;;
26512;SDS011;14186;53.822;10.152;2022-09-30T10:33:31;4.93;;;1.50;;
26512;SDS011;14186;53.822;10.152;2022-09-30T10:38:34;1.65;;;0.80;;
26512;SDS011;14186;53.822;10.152;2022-09-30T10:43:37;2.45;;;1.10;;
26512;SDS011;14186;53.822;10.152;2022-09-30T10:48:38;2.60;;;0.90;;
26512;SDS011;14186;53.822;10.152;2022-09-30T10:53:40;3.88;;;1.30;;
26512;SDS011;14186;53.822;10.152;2022-09-30T10:58:42;4.10;;;1.58;;
26512;SDS011;14186;53.822;10.152;2022-09-30T11:03:48;4.80;;;1.60;;
26512;SDS011;14186;53.822;10.152;2022-09-30T11:08:56;2.47;;;1.00;;
26512;SDS011;14186;53.822;10.152;2022-09-30T11:14:06;2.92;;;1.00;;
26512;SDS011;14186;53.822;10.152;2022-09-30T11:19:15;2.60;;;1.05;;
26512;SDS011;14186;53.822;10.152;2022-09-30T11:24:23;2.10;;;0.90;;
26512;SDS011;14186;53.822;10.152;2022-09-30T11:29:33;6.07;;;1.13;;
26512;SDS011;14186;53.822;10.152;2022-09-30T11:34:38;2.33;;;1.17;;
26512;SDS011;14186;53.822;10.152;2022-09-30T11:39:52;2.45;;;1.30;;
26512;SDS011;14186;53.822;10.152;2022-09-30T11:44:58;5.57;;;1.35;;
26512;SDS011;14186;53.822;10.152;2022-09-30T11:50:03;3.83;;;2.35;;
26512;SDS011;14186;53.822;10.152;2022-09-30T12:00:12;4.75;;;1.77;;
26512;SDS011;14186;53.822;10.152;2022-09-30T12:05:15;3.58;;;2.03;;
26512;SDS011;14186;53.822;10.152;2022-09-30T12:10:18;3.97;;;1.70;;
26512;SDS011;14186;53.822;10.152;2022-09-30T12:15:20;3.53;;;1.80;;
26512;SDS011;14186;53.822;10.152;2022-09-30T12:20:22;4.40;;;1.40;;
26512;SDS011;14186;53.822;10.152;2022-09-30T12:25:26;2.88;;;0.93;;
26512;SDS011;14186;53.822;10.152;2022-09-30T12:30:29;3.00;;;1.20;;
26512;SDS011;14186;53.822;10.152;2022-09-30T12:35:35;2.78;;;1.20;;
26512;SDS011;14186;53.822;10.152;2022-09-30T12:40:53;1.48;;;0.98;;
26512;SDS011;14186;53.822;10.152;2022-09-30T12:46:00;1.60;;;0.90;;
26512;SDS011;14186;53.822;10.152;2022-09-30T12:51:02;2.45;;;0.80;;
26512;SDS011;14186;53.822;10.152;2022-09-30T12:56:04;1.90;;;0.63;;
26512;SDS011;14186;53.822;10.152;2022-09-30T13:01:10;0.93;;;0.60;;
26512;SDS011;14186;53.822;10.152;2022-09-30T13:06:13;2.08;;;1.15;;
26512;SDS011;14186;53.822;10.152;2022-09-30T13:21:51;2.72;;;1.40;;
26512;SDS011;14186;53.822;10.152;2022-09-30T13:27:12;2.63;;;1.48;;
26512;SDS011;14186;53.822;10.152;2022-09-30T13:32:28;2.67;;;1.50;;
26512;SDS011;14186;53.822;10.152;2022-09-30T13:42:41;3.63;;;2.10;;
26512;SDS011;14186;53.822;10.152;2022-09-30T13:47:46;4.43;;;2.25;;
26512;SDS011;14186;53.822;10.152;2022-09-30T13:52:48;3.33;;;2.13;;
26512;SDS011;14186;53.822;10.152;2022-09-30T13:57:54;3.35;;;2.20;;
26512;SDS011;14186;53.822;10.152;2022-09-30T14:03:06;5.85;;;2.78;;
26512;SDS011;14186;53.822;10.152;2022-09-30T14:08:28;4.10;;;2.42;;
26512;SDS011;14186;53.822;10.152;2022-09-30T14:13:38;4.97;;;2.63;;
26512;SDS011;14186;53.822;10.152;2022-09-30T14:24:01;3.72;;;2.00;;
26512;SDS011;14186;53.822;10.152;2022-09-30T14:29:04;3.45;;;1.92;;
26512;SDS011;14186;53.822;10.152;2022-09-30T14:34:07;4.13;;;2.20;;
26512;SDS011;14186;53.822;10.152;2022-09-30T14:39:09;3.97;;;1.70;;
26512;SDS011;14186;53.822;10.152;2022-09-30T14:44:15;5.68;;;2.28;;
26512;SDS011;14186;53.822;10.152;2022-09-30T14:49:17;5.90;;;2.50;;
26512;SDS011;14186;53.822;10.152;2022-09-30T14:54:19;4.68;;;2.42;;
26512;SDS011;14186;53.822;10.152;2022-09-30T14:59:21;3.67;;;2.30;;
26512;SDS011;14186;53.822;10.152;2022-09-30T15:04:23;4.43;;;2.45;;
26512;SDS011;14186;53.822;10.152;2022-09-30T15:09:25;3.85;;;2.95;;
26512;SDS011;14186;53.822;10.152;2022-09-30T15:14:28;5.47;;;2.60;;
26512;SDS011;14186;53.822;10.152;2022-09-30T15:19:31;5.47;;;3.08;;
26512;SDS011;14186;53.822;10.152;2022-09-30T15:24:32;6.27;;;3.63;;
26512;SDS011;14186;53.822;10.152;2022-09-30T15:29:35;5.70;;;3.33;;
26512;SDS011;14186;53.822;10.152;2022-09-30T15:34:35;5.47;;;3.10;;
26512;SDS011;14186;53.822;10.152;2022-09-30T15:39:36;7.20;;;4.10;;
26512;SDS011;14186;53.822;10.152;2022-09-30T15:44:39;9.95;;;4.75;;
26512;SDS011;14186;53.822;10.152;2022-09-30T15:49:46;6.97;;;4.38;;
26512;SDS011;14186;53.822;10.152;2022-09-30T15:54:46;8.40;;;4.35;;
26512;SDS011;14186;53.822;10.152;2022-09-30T15:59:57;10.48;;;4.68;;
26512;SDS011;14186;53.822;10.152;2022-09-30T16:04:58;8.93;;;4.82;;
26512;SDS011;14186;53.822;10.152;2022-09-30T16:09:59;8.43;;;4.70;;
26512;SDS011;14186;53.822;10.152;2022-09-30T16:15:05;8.70;;;4.38;;
26512;SDS011;14186;53.822;10.152;2022-09-30T16:20:20;8.48;;;5.03;;
26512;SDS011;14186;53.822;10.152;2022-09-30T16:25:22;7.13;;;4.28;;
26512;SDS011;14186;53.822;10.152;2022-09-30T16:30:24;10.00;;;5.03;;
26512;SDS011;14186;53.822;10.152;2022-09-30T16:35:26;7.70;;;4.25;;
26512;SDS011;14186;53.822;10.152;2022-09-30T16:40:27;7.47;;;4.47;;
26512;SDS011;14186;53.822;10.152;2022-09-30T16:45:29;7.07;;;4.10;;
26512;SDS011;14186;53.822;10.152;2022-09-30T16:50:30;8.68;;;4.95;;
26512;SDS011;14186;53.822;10.152;2022-09-30T16:55:32;5.70;;;4.18;;
26512;SDS011;14186;53.822;10.152;2022-09-30T17:00:34;8.77;;;4.70;;
26512;SDS011;14186;53.822;10.152;2022-09-30T17:05:35;8.68;;;4.72;;
26512;SDS011;14186;53.822;10.152;2022-09-30T17:10:39;5.63;;;4.20;;
26512;SDS011;14186;53.822;10.152;2022-09-30T17:15:45;7.35;;;4.70;;
26512;SDS011;14186;53.822;10.152;2022-09-30T17:20:46;8.68;;;4.72;;
26512;SDS011;14186;53.822;10.152;2022-09-30T17:25:47;6.80;;;4.03;;
26512;SDS011;14186;53.822;10.152;2022-09-30T17:30:49;10.82;;;7.20;;
26512;SDS011;14186;53.822;10.152;2022-09-30T17:35:55;13.30;;;8.63;;
26512;SDS011;14186;53.822;10.152;2022-09-30T17:40:55;8.82;;;7.30;;
26512;SDS011;14186;53.822;10.152;2022-09-30T17:45:57;9.45;;;6.78;;
26512;SDS011;14186;53.822;10.152;2022-09-30T17:50:57;16.40;;;11.13;;
26512;SDS011;14186;53.822;10.152;2022-09-30T17:56:01;105.63;;;51.92;;
26512;SDS011;14186;53.822;10.152;2022-09-30T18:01:05;51.67;;;32.80;;
26512;SDS011;14186;53.822;10.152;2022-09-30T18:06:06;39.72;;;28.70;;
26512;SDS011;14186;53.822;10.152;2022-09-30T18:11:08;55.05;;;40.65;;
26512;SDS011;14186;53.822;10.152;2022-09-30T18:16:10;109.25;;;81.03;;
26512;SDS011;14186;53.822;10.152;2022-09-30T18:21:10;33.08;;;26.75;;
26512;SDS011;14186;53.822;10.152;2022-09-30T18:26:12;20.02;;;12.35;;
26512;SDS011;14186;53.822;10.152;2022-09-30T18:31:14;13.95;;;10.85;;
26512;SDS011;14186;53.822;10.152;2022-09-30T18:36:14;13.60;;;10.20;;
26512;SDS011;14186;53.822;10.152;2022-09-30T18:41:15;16.30;;;11.80;;
26512;SDS011;14186;53.822;10.152;2022-09-30T18:46:16;17.00;;;12.38;;
26512;SDS011;14186;53.822;10.152;2022-09-30T18:51:16;16.25;;;11.07;;
26512;SDS011;14186;53.822;10.152;2022-09-30T18:56:17;19.55;;;14.40;;
26512;SDS011;14186;53.822;10.152;2022-09-30T19:01:18;15.55;;;10.65;;
26512;SDS011;14186;53.822;10.152;2022-09-30T19:06:19;26.65;;;21.20;;
26512;SDS011;14186;53.822;10.152;2022-09-30T19:11:19;52.85;;;38.08;;
26512;SDS011;14186;53.822;10.152;2022-09-30T19:16:21;70.53;;;51.05;;
26512;SDS011;14186;53.822;10.152;2022-09-30T19:21:21;44.78;;;33.08;;
26512;SDS011;14186;53.822;10.152;2022-09-30T19:26:21;39.80;;;25.73;;
26512;SDS011;14186;53.822;10.152;2022-09-30T19:31:24;24.00;;;15.63;;
26512;SDS011;14186;53.822;10.152;2022-09-30T19:36:24;33.33;;;23.88;;
26512;SDS011;14186;53.822;10.152;2022-09-30T19:41:25;91.93;;;60.27;;
26512;SDS011;14186;53.822;10.152;2022-09-30T19:46:26;45.17;;;32.42;;
26512;SDS011;14186;53.822;10.152;2022-09-30T19:51:27;54.83;;;40.17;;
26512;SDS011;14186;53.822;10.152;2022-09-30T19:56:27;54.30;;;36.10;;
26512;SDS011;14186;53.822;10.152;2022-09-30T20:01:29;44.67;;;29.75;;
26512;SDS011;14186;53.822;10.152;2022-09-30T20:06:35;44.30;;;30.48;;
26512;SDS011;14186;53.822;10.152;2022-09-30T20:11:36;38.38;;;26.73;;
26512;SDS011;14186;53.822;10.152;2022-09-30T20:16:38;85.38;;;57.17;;
26512;SDS011;14186;53.822;10.152;2022-09-30T20:21:39;45.00;;;33.15;;
26512;SDS011;14186;53.822;10.152;2022-09-30T20:26:41;47.92;;;33.28;;
26512;SDS011;14186;53.822;10.152;2022-09-30T20:31:43;36.28;;;24.17;;
26512;SDS011;14186;53.822;10.152;2022-09-30T20:36:43;43.45;;;34.42;;
26512;SDS011;14186;53.822;10.152;2022-09-30T20:41:43;40.28;;;25.88;;
26512;SDS011;14186;53.822;10.152;2022-09-30T20:46:45;28.13;;;18.58;;
26512;SDS011;14186;53.822;10.152;2022-09-30T20:56:48;43.88;;;30.85;;
26512;SDS011;14186;53.822;10.152;2022-09-30T21:01:50;26.10;;;19.10;;
26512;SDS011;14186;53.822;10.152;2022-09-30T21:06:50;34.35;;;24.05;;
26512;SDS011;14186;53.822;10.152;2022-09-30T21:11:50;50.20;;;29.45;;
26512;SDS011;14186;53.822;10.152;2022-09-30T21:16:52;76.70;;;43.83;;
26512;SDS011;14186;53.822;10.152;2022-09-30T21:21:52;40.67;;;29.35;;
26512;SDS011;14186;53.822;10.152;2022-09-30T21:26:53;24.55;;;20.10;;
26512;SDS011;14186;53.822;10.152;2022-09-30T21:31:54;21.20;;;16.65;;
26512;SDS011;14186;53.822;10.152;2022-09-30T21:36:54;18.85;;;15.85;;
26512;SDS011;14186;53.822;10.152;2022-09-30T21:41:55;21.08;;;14.57;;
26512;SDS011;14186;53.822;10.152;2022-09-30T21:46:56;15.85;;;9.60;;
26512;SDS011;14186;53.822;10.152;2022-09-30T21:51:56;22.70;;;16.88;;
26512;SDS011;14186;53.822;10.152;2022-09-30T21:56:59;34.95;;;24.95;;
26512;SDS011;14186;53.822;10.152;2022-09-30T22:02:00;38.80;;;27.35;;
26512;SDS011;14186;53.822;10.152;2022-09-30T22:07:00;26.75;;;19.00;;
26512;SDS011;14186;53.822;10.152;2022-09-30T22:12:01;31.67;;;23.98;;
26512;SDS011;14186;53.822;10.152;2022-09-30T22:17:02;29.42;;;22.73;;
26512;SDS011;14186;53.822;10.152;2022-09-30T22:22:03;71.55;;;45.22;;
26512;SDS011;14186;53.822;10.152;2022-09-30T22:27:03;39.70;;;24.45;;
26512;SDS011;14186;53.822;10.152;2022-09-30T22:32:05;15.63;;;11.73;;
26512;SDS011;14186;53.822;10.152;2022-09-30T22:37:06;13.85;;;11.45;;
26512;SDS011;14186;53.822;10.152;2022-09-30T22:42:07;19.13;;;11.55;;
26512;SDS011;14186;53.822;10.152;2022-09-30T22:47:08;14.43;;;9.88;;
26512;SDS011;14186;53.822;10.152;2022-09-30T22:52:09;20.60;;;15.65;;
26512;SDS011;14186;53.822;10.152;2022-09-30T22:57:09;28.05;;;19.67;;
26512;SDS011;14186;53.822;10.152;2022-09-30T23:02:12;33.92;;;20.80;;
26512;SDS011;14186;53.822;10.152;2022-09-30T23:07:12;24.75;;;14.07;;
26512;SDS011;14186;53.822;10.152;2022-09-30T23:12:12;27.83;;;17.00;;
26512;SDS011;14186;53.822;10.152;2022-09-30T23:17:14;14.48;;;10.15;;
26512;SDS011;14186;53.822;10.152;2022-09-30T23:22:14;14.05;;;9.65;;
26512;SDS011;14186;53.822;10.152;2022-09-30T23:27:15;23.02;;;13.18;;
26512;SDS011;14186;53.822;10.152;2022-09-30T23:32:16;22.27;;;13.63;;
26512;SDS011;14186;53.822;10.152;2022-09-30T23:37:17;17.35;;;9.88;;
26512;SDS011;14186;53.822;10.152;2022-09-30T23:42:18;25.10;;;13.60;;
26512;SDS011;14186;53.822;10.152;2022-09-30T23:47:19;15.40;;;8.45;;
26512;SDS011;14186;53.822;10.152;2022-09-30T23:52:20;20.42;;;9.73;;
26512;SDS011;14186;53.822;10.152;2022-09-30T23:57:21;32.40;;;15.75;;
